createdAt,value
2023-04-05T00:01:53.513Z,92.02
2023-04-05T00:04:23.733Z,91.15
2023-04-05T00:06:52.597Z,91.65
2023-04-05T00:09:20.701Z,89.98
2023-04-05T00:11:48.049Z,92.38
2023-04-05T00:14:15.034Z,92.55
2023-04-05T00:16:42.021Z,91.88
2023-04-05T00:19:09.023Z,91.30
2023-04-05T00:21:35.620Z,90.10
2023-04-05T00:24:02.730Z,89.54
2023-04-05T00:26:29.226Z,89.55
2023-04-05T00:28:57.357Z,89.29
2023-04-05T00:31:23.934Z,90.70
2023-04-05T00:33:50.577Z,90.08
2023-04-05T00:36:19.171Z,89.48
2023-04-05T00:38:47.318Z,89.65
2023-04-05T00:41:14.373Z,89.81
2023-04-05T00:43:41.343Z,89.52
2023-04-05T00:46:08.923Z,90.21
2023-04-05T00:48:36.304Z,90.31
2023-04-05T00:51:03.190Z,89.42
2023-04-05T00:53:30.328Z,89.58
2023-04-05T00:55:57.949Z,90.17
2023-04-05T00:58:24.668Z,89.94
2023-04-05T01:01:06.774Z,90.45
2023-04-05T01:03:36.978Z,90.99
2023-04-05T01:06:43.005Z,90.44
2023-04-05T01:09:17.812Z,90.04
2023-04-05T01:11:47.255Z,91.02
2023-04-05T01:14:14.251Z,90.45
2023-04-05T01:16:40.768Z,89.84
2023-04-05T01:19:09.946Z,89.90
2023-04-05T01:21:38.029Z,89.03
2023-04-05T01:24:25.929Z,88.17
2023-04-05T01:27:14.285Z,87.95
2023-04-05T01:30:04.307Z,88.56
2023-04-05T01:32:46.740Z,88.44
2023-04-05T01:35:22.101Z,89.55
2023-04-05T01:37:57.745Z,91.70
2023-04-05T01:40:24.633Z,91.94
2023-04-05T01:42:51.111Z,90.75
2023-04-05T01:45:17.557Z,89.98
2023-04-05T01:47:44.157Z,90.72
2023-04-05T01:50:10.938Z,91.72
2023-04-05T01:52:37.432Z,91.69
2023-04-05T01:55:04.201Z,95.49
2023-04-05T01:57:30.941Z,96.88
2023-04-05T01:59:57.413Z,96.98
2023-04-05T02:02:23.949Z,98.06
2023-04-05T02:04:50.477Z,96.54
2023-04-05T02:07:17.035Z,98.92
2023-04-05T02:09:43.510Z,98.94
2023-04-05T02:12:12.318Z,99.19
2023-04-05T02:14:38.802Z,99.59
2023-04-05T02:17:05.636Z,98.97
2023-04-05T02:19:37.171Z,97.51
2023-04-05T02:22:03.832Z,96.63
2023-04-05T02:24:30.434Z,98.91
2023-04-05T02:26:57.493Z,100.00
2023-04-05T02:29:24.410Z,100.00
2023-04-05T02:31:50.907Z,100.00
2023-04-05T02:34:17.431Z,97.93
2023-04-05T02:36:44.131Z,97.38
2023-04-05T02:39:10.728Z,96.05
2023-04-05T02:41:38.129Z,96.29
2023-04-05T02:44:04.756Z,98.85
2023-04-05T02:46:31.197Z,98.85
2023-04-05T02:48:58.958Z,98.64
2023-04-05T02:51:28.513Z,99.75
2023-04-05T02:53:55.461Z,100.00
2023-04-05T02:56:22.095Z,99.99
2023-04-05T02:58:49.305Z,98.98
2023-04-05T03:01:20.981Z,98.85
2023-04-05T03:03:47.489Z,98.32
2023-04-05T03:06:15.551Z,99.94
2023-04-05T03:08:48.988Z,99.60
2023-04-05T03:11:20.743Z,99.81
2023-04-05T03:13:51.432Z,99.13
2023-04-05T03:16:40.897Z,100.00
2023-04-05T03:19:18.711Z,100.00
2023-04-05T03:21:46.296Z,100.00
2023-04-05T03:24:35.417Z,100.00
2023-04-05T03:27:06.073Z,100.00
2023-04-05T03:29:39.196Z,100.00
2023-04-05T03:32:13.845Z,100.00
2023-04-05T03:34:46.791Z,100.00
2023-04-05T03:37:15.398Z,100.00
2023-04-05T03:39:48.359Z,100.00
2023-04-05T03:42:16.406Z,100.00
2023-04-05T03:44:44.259Z,100.00
2023-04-05T03:47:10.942Z,100.00
2023-04-05T03:49:39.620Z,100.00
2023-04-05T03:52:06.527Z,100.00
2023-04-05T03:54:33.028Z,100.00
2023-04-05T03:57:01.145Z,100.00
2023-04-05T03:59:28.771Z,100.00
2023-04-05T04:01:55.342Z,100.00
2023-04-05T04:04:23.930Z,100.00
2023-04-05T04:06:50.913Z,100.00
2023-04-05T04:09:22.919Z,100.00
2023-04-05T04:11:49.572Z,100.00
2023-04-05T04:14:19.791Z,100.00
2023-04-05T04:17:01.790Z,100.00
2023-04-05T04:19:57.785Z,100.00
2023-04-05T04:22:48.709Z,100.00
2023-04-05T04:25:30.872Z,100.00
2023-04-05T04:28:17.823Z,100.00
2023-04-05T04:31:04.910Z,100.00
2023-04-05T04:33:50.599Z,100.00
2023-04-05T04:36:42.796Z,100.00
2023-04-05T04:39:45.006Z,100.00
2023-04-05T04:42:39.083Z,100.00
2023-04-05T04:45:18.468Z,100.00
2023-04-05T04:48:06.496Z,100.00
2023-04-05T04:50:45.523Z,100.00
2023-04-05T04:53:13.611Z,100.00
2023-04-05T04:55:43.479Z,100.00
2023-04-05T04:58:11.943Z,100.00
2023-04-05T05:00:44.543Z,100.00
2023-04-05T05:03:11.913Z,100.00
2023-04-05T05:05:50.221Z,100.00
2023-04-05T05:08:21.896Z,100.00
2023-04-05T05:10:52.370Z,100.00
2023-04-05T05:13:19.009Z,100.00
2023-04-05T05:15:45.524Z,100.00
2023-04-05T05:18:12.466Z,100.00
2023-04-05T05:20:39.430Z,100.00
2023-04-05T05:23:06.369Z,100.00
2023-04-05T05:25:32.838Z,100.00
2023-04-05T05:27:59.920Z,100.00
2023-04-05T05:30:28.709Z,100.00
2023-04-05T05:32:55.347Z,100.00
2023-04-05T05:35:21.893Z,100.00
2023-04-05T05:37:50.730Z,100.00
2023-04-05T05:40:17.206Z,99.49
2023-04-05T05:42:43.643Z,94.38
2023-04-05T05:45:10.688Z,81.30
2023-04-05T05:47:37.223Z,74.46
2023-04-05T05:50:04.502Z,69.64
2023-04-05T05:52:31.414Z,66.24
2023-04-05T05:54:57.858Z,67.16
2023-04-05T05:57:24.566Z,65.99
2023-04-05T05:59:51.005Z,64.94
2023-04-05T06:02:17.463Z,64.02
2023-04-05T06:04:44.041Z,65.09
2023-04-05T06:07:11.079Z,67.97
2023-04-05T06:09:37.859Z,71.21
2023-04-05T06:12:04.392Z,69.16
2023-04-05T06:14:31.155Z,61.87
2023-04-05T06:16:58.125Z,60.82
2023-04-05T06:19:24.559Z,54.73
2023-04-05T06:21:51.464Z,52.00
2023-04-05T06:24:17.980Z,55.33
2023-04-05T06:26:44.454Z,56.32
2023-04-05T06:29:11.248Z,56.41
2023-04-05T06:31:37.821Z,54.52
2023-04-05T06:34:04.331Z,52.51
2023-04-05T06:36:34.604Z,55.35
2023-04-05T06:39:01.533Z,59.33
2023-04-05T06:41:28.123Z,53.53
2023-04-05T06:43:55.522Z,51.47
2023-04-05T06:46:22.779Z,53.18
2023-04-05T06:48:49.986Z,53.43
2023-04-05T06:51:16.856Z,50.15
2023-04-05T06:53:43.371Z,51.44
2023-04-05T06:56:09.941Z,51.93
2023-04-05T06:58:36.722Z,51.59
2023-04-05T07:01:03.998Z,49.00
2023-04-05T07:03:30.990Z,47.70
2023-04-05T07:05:59.338Z,43.64
2023-04-05T07:08:27.866Z,42.22
2023-04-05T07:10:55.321Z,44.75
2023-04-05T07:13:23.252Z,45.69
2023-04-05T07:15:50.044Z,42.83
2023-04-05T07:18:17.074Z,41.97
2023-04-05T07:20:46.924Z,43.07
2023-04-05T07:23:13.376Z,42.84
2023-04-05T07:25:41.104Z,46.21
2023-04-05T07:28:07.749Z,46.91
2023-04-05T07:30:34.224Z,45.46
2023-04-05T07:33:00.912Z,43.96
2023-04-05T07:35:28.468Z,46.42
2023-04-05T07:37:54.998Z,46.18
2023-04-05T07:40:25.836Z,43.86
2023-04-05T07:42:59.741Z,44.93
2023-04-05T07:45:27.206Z,45.57
2023-04-05T07:47:53.681Z,43.46
2023-04-05T07:50:20.617Z,44.41
2023-04-05T07:52:47.088Z,44.55
2023-04-05T07:55:13.641Z,42.48
2023-04-05T07:57:40.247Z,40.34
2023-04-05T08:00:12.221Z,36.16
2023-04-05T08:02:42.373Z,39.50
2023-04-05T08:05:09.072Z,38.25
2023-04-05T08:07:35.603Z,39.88
2023-04-05T08:10:02.457Z,38.14
2023-04-05T08:12:31.162Z,35.30
2023-04-05T08:14:57.843Z,33.27
2023-04-05T08:17:27.055Z,31.94
2023-04-05T08:19:54.394Z,31.74
2023-04-05T08:22:21.093Z,35.28
2023-04-05T08:24:47.628Z,34.96
2023-04-05T08:27:14.151Z,34.86
2023-04-05T08:29:40.770Z,37.17
2023-04-05T08:32:08.944Z,33.69
2023-04-05T08:34:35.581Z,35.29
2023-04-05T08:37:02.033Z,33.33
2023-04-05T08:39:28.592Z,32.84
2023-04-05T08:42:08.503Z,31.91
2023-04-05T08:44:36.984Z,33.77
2023-04-05T08:47:03.496Z,31.58
2023-04-05T08:49:29.949Z,31.84
2023-04-05T08:51:58.902Z,32.60
2023-04-05T08:54:25.545Z,33.96
2023-04-05T08:56:54.503Z,33.58
2023-04-05T08:59:22.158Z,33.96
2023-04-05T09:01:50.238Z,30.31
2023-04-05T09:04:20.745Z,33.01
2023-04-05T09:06:50.030Z,31.70
2023-04-05T09:09:18.624Z,31.70
2023-04-05T09:11:45.266Z,33.53
2023-04-05T09:14:12.264Z,31.45
2023-04-05T09:16:40.588Z,31.68
2023-04-05T09:19:08.315Z,32.49
2023-04-05T09:22:04.082Z,33.27
2023-04-05T09:24:41.685Z,34.86
2023-04-05T09:27:19.203Z,33.32
2023-04-05T09:29:53.397Z,33.13
2023-04-05T09:32:21.186Z,32.29
2023-04-05T09:34:48.146Z,31.46
2023-04-05T09:37:22.287Z,30.35
2023-04-05T09:39:51.551Z,32.39
2023-04-05T09:42:22.719Z,32.64
2023-04-05T09:44:51.209Z,30.76
2023-04-05T09:47:19.377Z,29.66
2023-04-05T09:49:47.753Z,31.15
2023-04-05T09:52:18.897Z,29.82
2023-04-05T09:54:45.474Z,30.77
2023-04-05T09:57:12.111Z,30.35
2023-04-05T09:59:41.751Z,29.16
2023-04-05T10:02:10.423Z,29.79
2023-04-05T10:04:44.885Z,28.88
2023-04-05T10:07:13.924Z,29.47
2023-04-05T10:09:42.135Z,29.29
2023-04-05T10:12:10.505Z,29.31
2023-04-05T10:14:37.856Z,29.83
2023-04-05T10:17:20.115Z,31.14
2023-04-05T10:20:17.112Z,31.37
2023-04-05T10:22:52.455Z,29.04
2023-04-05T10:25:46.899Z,30.44
2023-04-05T10:28:41.421Z,29.68
2023-04-05T10:31:07.821Z,27.45
2023-04-05T10:33:44.214Z,29.06
2023-04-05T10:36:37.948Z,28.06
2023-04-05T10:39:17.207Z,29.08
2023-04-05T10:41:54.216Z,27.82
2023-04-05T10:44:26.409Z,27.71
2023-04-05T10:46:55.618Z,27.71
2023-04-05T10:49:23.294Z,29.84
2023-04-05T10:51:50.805Z,28.55
2023-04-05T10:54:19.461Z,28.84
2023-04-05T10:56:46.715Z,26.76
2023-04-05T10:59:13.946Z,29.09
2023-04-05T11:01:42.088Z,29.14
2023-04-05T11:04:16.267Z,27.27
2023-04-05T11:06:43.749Z,27.99
2023-04-05T11:09:21.104Z,27.51
2023-04-05T11:11:49.429Z,27.77
2023-04-05T11:14:22.057Z,28.16
2023-04-05T11:16:53.369Z,28.51
2023-04-05T11:19:20.692Z,26.07
2023-04-05T11:21:47.507Z,28.22
2023-04-05T11:24:18.794Z,27.00
2023-04-05T11:26:48.087Z,25.76
2023-04-05T11:29:17.593Z,25.93
2023-04-05T11:32:01.142Z,26.41
2023-04-05T11:34:27.618Z,24.12
2023-04-05T11:36:54.282Z,22.10
2023-04-05T11:39:23.947Z,22.36
2023-04-05T11:42:03.790Z,23.18
2023-04-05T11:44:40.781Z,23.23
2023-04-05T11:47:07.590Z,24.43
2023-04-05T11:49:34.664Z,22.36
2023-04-05T11:52:14.054Z,24.82
2023-04-05T11:54:45.982Z,23.91
2023-04-05T11:57:20.065Z,22.60
2023-04-05T11:59:46.858Z,22.95
2023-04-05T12:02:13.286Z,25.01
2023-04-05T12:04:40.616Z,21.62
2023-04-05T12:07:18.176Z,23.11
2023-04-05T12:10:03.476Z,21.41
2023-04-05T12:12:38.304Z,22.19
2023-04-05T12:15:08.296Z,21.77
2023-04-05T12:17:46.990Z,23.25
2023-04-05T12:20:16.232Z,20.70
2023-04-05T12:22:44.205Z,22.05
2023-04-05T12:25:12.016Z,20.53
2023-04-05T12:27:39.347Z,20.84
2023-04-05T12:30:17.806Z,23.37
2023-04-05T12:32:46.631Z,23.26
2023-04-05T12:35:15.923Z,23.08
2023-04-05T12:37:42.492Z,24.13
2023-04-05T12:40:10.227Z,22.52
2023-04-05T12:42:40.789Z,23.73
2023-04-05T12:45:12.937Z,24.54
2023-04-05T12:47:50.840Z,23.71
2023-04-05T12:50:18.695Z,25.29
2023-04-05T12:52:59.558Z,23.47
2023-04-05T12:55:29.029Z,23.62
2023-04-05T12:57:59.537Z,23.51
2023-04-05T13:00:28.093Z,22.62
2023-04-05T13:02:56.158Z,23.58
2023-04-05T13:05:25.164Z,21.67
2023-04-05T13:07:51.935Z,22.60
2023-04-05T13:10:20.561Z,24.47
2023-04-05T13:12:47.495Z,23.21
2023-04-05T13:15:15.340Z,25.32
2023-04-05T13:17:42.812Z,23.32
2023-04-05T13:20:10.340Z,24.49
2023-04-05T13:22:37.177Z,25.08
2023-04-05T13:25:04.543Z,26.70
2023-04-05T13:27:31.230Z,27.50
2023-04-05T13:29:57.800Z,27.50
2023-04-05T13:32:24.438Z,27.29
2023-04-05T13:34:51.028Z,27.76
2023-04-05T13:37:17.487Z,30.14
2023-04-05T13:39:44.114Z,30.88
2023-04-05T13:42:10.810Z,31.00
2023-04-05T13:44:38.245Z,30.54
2023-04-05T13:47:04.800Z,32.19
2023-04-05T13:49:31.245Z,32.87
2023-04-05T13:51:57.666Z,32.69
2023-04-05T13:54:24.118Z,33.12
2023-04-05T13:56:50.582Z,33.18
2023-04-05T13:59:17.316Z,33.73
2023-04-05T14:01:43.881Z,34.64
2023-04-05T14:04:10.983Z,34.70
2023-04-05T14:06:37.748Z,34.08
2023-04-05T14:09:04.827Z,34.35
2023-04-05T14:11:35.818Z,34.07
2023-04-05T14:14:02.896Z,35.15
2023-04-05T14:16:29.976Z,33.87
2023-04-05T14:18:56.739Z,35.76
2023-04-05T14:21:24.534Z,34.50
2023-04-05T14:23:54.251Z,35.62
2023-04-05T14:26:20.702Z,34.82
2023-04-05T14:29:19.111Z,34.40
2023-04-05T14:31:45.686Z,34.38
2023-04-05T14:34:12.267Z,35.25
2023-04-05T14:36:38.718Z,35.56
2023-04-05T14:39:05.325Z,34.83
2023-04-05T14:41:32.228Z,34.62
2023-04-05T14:43:59.166Z,34.96
2023-04-05T14:46:25.746Z,34.85
2023-04-05T14:48:52.283Z,35.76
2023-04-05T14:51:18.820Z,36.87
2023-04-05T14:53:45.284Z,37.44
2023-04-05T14:56:12.120Z,36.55
2023-04-05T14:58:38.534Z,36.69
2023-04-05T15:01:05.245Z,34.73
2023-04-05T15:03:31.877Z,34.64
2023-04-05T15:05:58.353Z,35.73
2023-04-05T15:08:24.827Z,36.50
2023-04-05T15:10:51.280Z,33.02
2023-04-05T15:13:19.731Z,33.44
2023-04-05T15:15:46.232Z,32.87
2023-04-05T15:18:12.835Z,33.27
2023-04-05T15:20:39.267Z,32.40
2023-04-05T15:23:05.743Z,32.47
2023-04-05T15:25:32.175Z,34.05
2023-04-05T15:28:02.297Z,33.73
2023-04-05T15:30:29.890Z,33.80
2023-04-05T15:32:56.368Z,31.26
2023-04-05T15:35:23.000Z,30.92
2023-04-05T15:37:49.486Z,33.16
2023-04-05T15:40:16.367Z,32.73
2023-04-05T15:42:42.808Z,32.95
2023-04-05T15:45:09.818Z,34.50
2023-04-05T15:47:36.444Z,33.22
2023-04-05T15:50:06.260Z,35.22
2023-04-05T15:52:33.992Z,33.82
2023-04-05T15:55:00.650Z,34.71
2023-04-05T15:57:27.116Z,35.62
2023-04-05T15:59:54.413Z,36.98
2023-04-05T16:02:20.886Z,36.59
2023-04-05T16:04:47.445Z,37.19
2023-04-05T16:07:16.727Z,35.01
2023-04-05T16:09:43.302Z,35.37
2023-04-05T16:12:09.766Z,36.76
2023-04-05T16:14:36.276Z,35.88
2023-04-05T16:17:02.775Z,36.32
2023-04-05T16:19:29.288Z,36.70
2023-04-05T16:21:55.831Z,37.17
2023-04-05T16:24:22.469Z,37.14
2023-04-05T16:26:48.850Z,36.08
2023-04-05T16:29:15.254Z,37.18
2023-04-05T16:31:46.936Z,37.32
2023-04-05T16:34:13.970Z,39.78
2023-04-05T16:36:41.256Z,38.96
2023-04-05T16:39:07.750Z,38.33
2023-04-05T16:41:36.138Z,37.04
2023-04-05T16:44:03.039Z,39.73
2023-04-05T16:46:32.028Z,38.05
2023-04-05T16:49:00.348Z,37.01
2023-04-05T16:51:28.004Z,37.98
2023-04-05T16:53:55.636Z,39.26
2023-04-05T16:56:23.355Z,39.92
2023-04-05T16:58:49.831Z,42.06
2023-04-05T17:01:16.308Z,41.08
2023-04-05T17:03:46.842Z,38.24
2023-04-05T17:06:14.328Z,38.73
2023-04-05T17:08:41.005Z,38.86
2023-04-05T17:11:07.668Z,39.24
2023-04-05T17:13:34.162Z,39.45
2023-04-05T17:16:00.826Z,39.15
2023-04-05T17:18:27.615Z,38.67
2023-04-05T17:20:54.066Z,40.63
2023-04-05T17:23:20.572Z,40.91
2023-04-05T17:25:47.010Z,40.38
2023-04-05T17:28:13.463Z,42.47
2023-04-05T17:30:39.986Z,40.83
2023-04-05T17:33:06.614Z,41.81
2023-04-05T17:35:33.151Z,41.73
2023-04-05T17:37:59.635Z,41.00
2023-04-05T17:40:26.078Z,42.95
2023-04-05T17:42:52.538Z,42.66
2023-04-05T17:45:18.950Z,41.40
2023-04-05T17:47:45.507Z,44.90
2023-04-05T17:50:12.031Z,44.27
2023-04-05T17:52:38.549Z,47.00
2023-04-05T17:55:05.731Z,47.53
2023-04-05T17:57:32.246Z,45.78
2023-04-05T17:59:59.329Z,48.56
2023-04-05T18:02:31.160Z,49.56
2023-04-05T18:04:59.438Z,49.50
2023-04-05T18:07:27.355Z,48.11
2023-04-05T18:09:53.884Z,50.17
2023-04-05T18:12:22.014Z,50.54
2023-04-05T18:14:48.652Z,53.81
2023-04-05T18:17:15.308Z,52.41
2023-04-05T18:19:42.196Z,55.96
2023-04-05T18:22:08.632Z,54.06
2023-04-05T18:24:35.415Z,56.27
2023-04-05T18:27:02.128Z,55.19
2023-04-05T18:29:30.873Z,55.15
2023-04-05T18:32:12.232Z,54.60
2023-04-05T18:34:38.918Z,55.97
2023-04-05T18:37:05.674Z,57.80
2023-04-05T18:39:32.406Z,59.75
2023-04-05T18:41:59.070Z,59.72
2023-04-05T18:44:26.038Z,62.25
2023-04-05T18:46:53.653Z,60.70
2023-04-05T18:49:21.914Z,57.38
2023-04-05T18:51:48.852Z,59.82
2023-04-05T18:54:18.176Z,60.77
2023-04-05T18:56:45.424Z,59.72
2023-04-05T18:59:12.349Z,59.28
2023-04-05T19:01:38.929Z,60.95
2023-04-05T19:04:06.004Z,58.76
2023-04-05T19:06:34.983Z,57.63
2023-04-05T19:09:01.919Z,58.16
2023-04-05T19:11:28.516Z,58.36
2023-04-05T19:13:55.320Z,58.72
2023-04-05T19:16:21.762Z,59.92
2023-04-05T19:18:48.296Z,60.70
2023-04-05T19:21:15.113Z,64.54
2023-04-05T19:23:41.983Z,62.28
2023-04-05T19:26:08.395Z,60.99
2023-04-05T19:28:34.850Z,61.96
2023-04-05T19:31:01.320Z,61.40
2023-04-05T19:33:30.251Z,62.89
2023-04-05T19:35:57.804Z,63.54
2023-04-05T19:38:24.321Z,65.98
2023-04-05T19:40:50.937Z,65.92
2023-04-05T19:43:17.480Z,67.92
2023-04-05T19:45:44.255Z,67.43
2023-04-05T19:48:37.588Z,64.09
2023-04-05T19:51:06.836Z,65.08
2023-04-05T19:53:39.336Z,65.92
2023-04-05T19:56:12.541Z,68.37
2023-04-05T19:58:39.117Z,68.90
2023-04-05T20:01:06.760Z,69.26
2023-04-05T20:03:36.159Z,69.29
2023-04-05T20:06:08.014Z,68.43
2023-04-05T20:08:37.303Z,69.16
2023-04-05T20:11:19.313Z,69.52
2023-04-05T20:13:52.244Z,70.52
2023-04-05T20:16:25.548Z,69.68
2023-04-05T20:18:52.808Z,70.16
2023-04-05T20:21:19.706Z,70.68
2023-04-05T20:23:47.273Z,70.39
2023-04-05T20:26:16.002Z,70.41
2023-04-05T20:28:53.248Z,70.23
2023-04-05T20:31:25.880Z,70.26
2023-04-05T20:34:09.465Z,69.49
2023-04-05T20:36:37.971Z,68.17
2023-04-05T20:39:06.485Z,67.10
2023-04-05T20:41:33.275Z,67.06
2023-04-05T20:44:00.440Z,67.38
2023-04-05T20:46:27.857Z,67.44
2023-04-05T20:48:57.952Z,68.38
2023-04-05T20:51:24.717Z,69.06
2023-04-05T20:53:51.250Z,69.42
2023-04-05T20:56:18.032Z,70.65
2023-04-05T20:58:44.600Z,70.92
2023-04-05T21:01:11.521Z,70.23
2023-04-05T21:03:40.530Z,69.98
2023-04-05T21:06:09.018Z,70.07
2023-04-05T21:08:37.143Z,68.61
2023-04-05T21:11:04.915Z,69.58
2023-04-05T21:13:31.578Z,69.83
2023-04-05T21:15:58.333Z,70.96
2023-04-05T21:18:25.573Z,70.67
2023-04-05T21:20:53.548Z,71.73
2023-04-05T21:23:22.451Z,71.29
2023-04-05T21:25:49.723Z,72.20
2023-04-05T21:28:16.533Z,71.24
2023-04-05T21:30:43.632Z,70.04
2023-04-05T21:33:10.609Z,70.11
2023-04-05T21:35:37.212Z,69.88
2023-04-05T21:38:03.809Z,70.99
2023-04-05T21:40:30.670Z,71.81
2023-04-05T21:42:57.596Z,72.24
2023-04-05T21:45:24.427Z,72.36
2023-04-05T21:47:51.180Z,72.05
2023-04-05T21:50:17.817Z,71.52
2023-04-05T21:52:45.346Z,71.39
2023-04-05T21:55:12.501Z,71.92
2023-04-05T21:57:39.036Z,72.49
2023-04-05T22:00:10.841Z,71.99
2023-04-05T22:02:41.223Z,71.50
2023-04-05T22:05:08.501Z,72.13
2023-04-05T22:07:35.871Z,72.87
2023-04-05T22:10:03.245Z,73.34
2023-04-05T22:12:29.796Z,76.34
2023-04-05T22:14:56.516Z,76.60
2023-04-05T22:17:23.337Z,76.60
2023-04-05T22:19:49.888Z,77.36
2023-04-05T22:22:17.333Z,76.60
2023-04-05T22:24:44.162Z,78.08
2023-04-05T22:27:11.862Z,77.53
2023-04-05T22:29:38.654Z,77.34
2023-04-05T22:32:05.672Z,77.51
2023-04-05T22:34:32.165Z,77.83
2023-04-05T22:36:58.695Z,77.87
2023-04-05T22:39:25.359Z,77.29
2023-04-05T22:41:51.791Z,77.58
2023-04-05T22:44:18.281Z,77.32
2023-04-05T22:46:44.766Z,78.78
2023-04-05T22:49:11.205Z,79.67
2023-04-05T22:51:37.654Z,77.25
2023-04-05T22:54:04.202Z,76.68
2023-04-05T22:56:31.520Z,75.62
2023-04-05T22:58:58.137Z,76.17
2023-04-05T23:01:24.794Z,79.44
2023-04-05T23:03:51.494Z,80.04
2023-04-05T23:06:17.959Z,80.95
2023-04-05T23:08:44.414Z,85.35
2023-04-05T23:11:10.935Z,84.57
2023-04-05T23:13:37.379Z,82.66
2023-04-05T23:16:04.325Z,81.69
2023-04-05T23:18:30.985Z,84.10
2023-04-05T23:20:57.495Z,84.65
2023-04-05T23:23:24.022Z,83.23
2023-04-05T23:25:51.099Z,82.88
2023-04-05T23:28:17.587Z,82.79
2023-04-05T23:30:44.053Z,82.60
2023-04-05T23:33:12.979Z,81.83
2023-04-05T23:35:40.553Z,82.74
2023-04-05T23:38:07.344Z,82.10
2023-04-05T23:40:34.010Z,81.06
2023-04-05T23:43:00.690Z,80.30
2023-04-05T23:45:27.524Z,79.51
2023-04-05T23:47:55.484Z,78.62
2023-04-05T23:50:22.360Z,79.07
2023-04-05T23:52:49.147Z,83.14
2023-04-05T23:55:15.952Z,83.37
2023-04-05T23:57:42.407Z,82.44
